createdAt,value
2023-02-16T00:00:28.288Z,95316.28
2023-02-16T00:02:55.061Z,95318.41
2023-02-16T00:05:26.136Z,95314.22
2023-02-16T00:07:54.011Z,95323.69
2023-02-16T00:10:20.837Z,95316.22
2023-02-16T00:13:05.984Z,95326.34
2023-02-16T00:15:33.130Z,95330.13
2023-02-16T00:18:02.749Z,95319.31
2023-02-16T00:20:32.039Z,95323.50
2023-02-16T00:22:58.792Z,95310.34
2023-02-16T00:25:25.533Z,95318.66
2023-02-16T00:27:52.518Z,95318.97
2023-02-16T00:30:21.568Z,95317.47
2023-02-16T00:32:48.235Z,95311.09
2023-02-16T00:35:19.965Z,95321.31
2023-02-16T00:37:48.169Z,95310.81
2023-02-16T00:40:16.849Z,95316.38
2023-02-16T00:42:46.154Z,95311.38
2023-02-16T00:45:20.079Z,95316.31
2023-02-16T00:47:50.979Z,95311.19
2023-02-16T00:50:26.106Z,95312.31
2023-02-16T00:52:53.100Z,95312.78
2023-02-16T00:55:21.894Z,95309.91
2023-02-16T00:57:52.264Z,95311.72
2023-02-16T01:00:28.523Z,95314.75
2023-02-16T01:02:59.188Z,95308.84
2023-02-16T01:05:26.135Z,95312.06
2023-02-16T01:08:11.426Z,95308.88
2023-02-16T01:10:57.759Z,95307.03
2023-02-16T01:13:27.010Z,95299.44
2023-02-16T01:15:53.693Z,95310.34
2023-02-16T01:18:21.206Z,95295.22
2023-02-16T01:20:48.502Z,95306.66
2023-02-16T01:23:15.189Z,95293.34
2023-02-16T01:25:42.303Z,95290.78
2023-02-16T01:28:23.656Z,95287.75
2023-02-16T01:30:51.897Z,95283.41
2023-02-16T01:33:19.679Z,95280.94
2023-02-16T01:35:46.730Z,95275.28
2023-02-16T01:38:19.310Z,95278.81
2023-02-16T01:40:55.583Z,95274.38
2023-02-16T01:43:48.195Z,95276.81
2023-02-16T01:46:21.204Z,95264.47
2023-02-16T01:48:48.059Z,95277.13
2023-02-16T01:51:38.045Z,95272.72
2023-02-16T01:54:27.376Z,95273.03
2023-02-16T01:57:29.202Z,95267.69
2023-02-16T01:59:55.902Z,95263.13
2023-02-16T02:02:50.786Z,95265.91
2023-02-16T02:05:37.805Z,95261.59
2023-02-16T02:08:19.583Z,95268.00
2023-02-16T02:10:51.873Z,95268.16
2023-02-16T02:13:42.847Z,95264.63
2023-02-16T02:16:10.736Z,95271.19
2023-02-16T02:18:37.687Z,95266.19
2023-02-16T02:21:25.902Z,95264.69
2023-02-16T02:24:16.245Z,95261.84
2023-02-16T02:26:54.840Z,95260.75
2023-02-16T02:29:21.378Z,95260.91
2023-02-16T02:31:55.941Z,95253.28
2023-02-16T02:34:44.236Z,95260.91
2023-02-16T02:37:26.804Z,95254.88
2023-02-16T02:40:17.021Z,95257.47
2023-02-16T02:43:25.234Z,95260.66
2023-02-16T02:45:58.876Z,95263.06
2023-02-16T02:48:33.809Z,95265.56
2023-02-16T02:51:23.175Z,95265.13
2023-02-16T02:54:14.660Z,95262.16
2023-02-16T02:57:08.899Z,95264.47
2023-02-16T02:59:58.326Z,95263.34
2023-02-16T03:02:26.316Z,95267.38
2023-02-16T03:04:57.006Z,95270.59
2023-02-16T03:07:45.126Z,95265.28
2023-02-16T03:10:30.112Z,95277.84
2023-02-16T03:12:57.943Z,95265.84
2023-02-16T03:15:25.780Z,95272.72
2023-02-16T03:18:13.986Z,95264.31
2023-02-16T03:21:02.561Z,95259.44
2023-02-16T03:23:48.447Z,95261.38
2023-02-16T03:26:34.564Z,95267.19
2023-02-16T03:29:21.748Z,95264.94
2023-02-16T03:31:49.887Z,95256.75
2023-02-16T03:34:18.357Z,95264.19
2023-02-16T03:36:48.988Z,95257.91
2023-02-16T03:39:16.386Z,95254.41
2023-02-16T03:41:50.259Z,95255.09
2023-02-16T03:44:17.612Z,95251.13
2023-02-16T03:46:44.795Z,95250.06
2023-02-16T03:49:11.809Z,95261.31
2023-02-16T03:51:38.746Z,95258.97
2023-02-16T03:54:05.386Z,95254.25
2023-02-16T03:56:32.050Z,95257.59
2023-02-16T03:58:58.675Z,95256.50
2023-02-16T04:01:25.953Z,95251.66
2023-02-16T04:03:52.676Z,95257.78
2023-02-16T04:06:19.562Z,95260.69
2023-02-16T04:08:46.368Z,95258.56
2023-02-16T04:11:31.599Z,95250.16
2023-02-16T04:13:58.266Z,95252.34
2023-02-16T04:16:24.961Z,95240.16
2023-02-16T04:18:51.570Z,95244.59
2023-02-16T04:21:18.208Z,95244.34
2023-02-16T04:23:44.976Z,95246.97
2023-02-16T04:26:11.632Z,95242.59
2023-02-16T04:28:38.199Z,95234.63
2023-02-16T04:31:05.390Z,95236.22
2023-02-16T04:33:32.244Z,95241.69
2023-02-16T04:35:58.821Z,95249.13
2023-02-16T04:38:26.177Z,95245.09
2023-02-16T04:40:52.842Z,95248.06
2023-02-16T04:43:19.444Z,95251.75
2023-02-16T04:45:46.204Z,95251.50
2023-02-16T04:48:12.830Z,95256.19
2023-02-16T04:50:39.447Z,95258.09
2023-02-16T04:53:07.283Z,95257.50
2023-02-16T04:55:33.879Z,95259.94
2023-02-16T04:58:00.571Z,95254.47
2023-02-16T05:00:27.199Z,95265.50
2023-02-16T05:02:53.868Z,95260.47
2023-02-16T05:05:20.479Z,95249.66
2023-02-16T05:07:47.124Z,95264.94
2023-02-16T05:10:13.784Z,95270.78
2023-02-16T05:12:59.071Z,95263.66
2023-02-16T05:15:25.704Z,95269.75
2023-02-16T05:17:52.270Z,95275.31
2023-02-16T05:20:18.939Z,95262.88
2023-02-16T05:22:46.429Z,95263.19
2023-02-16T05:25:13.196Z,95263.97
2023-02-16T05:27:39.861Z,95270.00
2023-02-16T05:30:06.988Z,95271.06
2023-02-16T05:32:33.628Z,95273.72
2023-02-16T05:35:00.349Z,95286.38
2023-02-16T05:37:27.089Z,95279.25
2023-02-16T05:39:53.718Z,95281.34
2023-02-16T05:42:20.334Z,95278.69
2023-02-16T05:44:46.934Z,95287.97
2023-02-16T05:47:13.701Z,95286.38
2023-02-16T05:49:40.349Z,95291.66
2023-02-16T05:52:06.953Z,95280.56
2023-02-16T05:54:33.616Z,95297.44
2023-02-16T05:57:00.152Z,95288.97
2023-02-16T05:59:26.833Z,95295.56
2023-02-16T06:01:54.088Z,95296.06
2023-02-16T06:04:21.817Z,95298.72
2023-02-16T06:06:48.828Z,95305.59
2023-02-16T06:09:15.789Z,95308.22
2023-02-16T06:11:42.909Z,95309.84
2023-02-16T06:14:13.326Z,95315.59
2023-02-16T06:16:42.475Z,95314.50
2023-02-16T06:19:10.170Z,95319.81
2023-02-16T06:21:38.944Z,95313.25
2023-02-16T06:24:06.511Z,95318.78
2023-02-16T06:26:33.357Z,95323.53
2023-02-16T06:29:00.117Z,95329.59
2023-02-16T06:31:27.124Z,95325.09
2023-02-16T06:33:54.698Z,95327.78
2023-02-16T06:36:21.312Z,95325.41
2023-02-16T06:38:47.942Z,95327.50
2023-02-16T06:41:31.282Z,95325.13
2023-02-16T06:44:03.501Z,95323.25
2023-02-16T06:46:30.485Z,95323.22
2023-02-16T06:48:57.806Z,95326.41
2023-02-16T06:51:24.472Z,95334.34
2023-02-16T06:53:51.099Z,95326.16
2023-02-16T06:56:17.738Z,95335.13
2023-02-16T06:58:44.351Z,95326.66
2023-02-16T07:01:11.309Z,95327.72
2023-02-16T07:03:38.196Z,95324.59
2023-02-16T07:06:05.026Z,95320.50
2023-02-16T07:08:31.808Z,95320.34
2023-02-16T07:10:58.389Z,95317.66
2023-02-16T07:13:24.973Z,95315.72
2023-02-16T07:15:51.716Z,95313.13
2023-02-16T07:18:18.391Z,95313.03
2023-02-16T07:20:44.987Z,95312.38
2023-02-16T07:23:11.606Z,95305.03
2023-02-16T07:25:38.331Z,95300.22
2023-02-16T07:28:04.951Z,95296.19
2023-02-16T07:30:31.673Z,95301.97
2023-02-16T07:32:58.368Z,95293.50
2023-02-16T07:35:25.393Z,95294.53
2023-02-16T07:37:52.093Z,95293.97
2023-02-16T07:40:18.791Z,95294.50
2023-02-16T07:42:45.392Z,95287.63
2023-02-16T07:45:12.030Z,95290.47
2023-02-16T07:47:38.634Z,95294.63
2023-02-16T07:50:05.800Z,95298.53
2023-02-16T07:52:32.490Z,95294.69
2023-02-16T07:54:59.280Z,95301.25
2023-02-16T07:57:27.343Z,95299.19
2023-02-16T07:59:55.107Z,95297.59
2023-02-16T08:02:23.061Z,95292.72
2023-02-16T08:04:52.843Z,95300.34
2023-02-16T08:07:20.413Z,95297.72
2023-02-16T08:09:47.306Z,95302.44
2023-02-16T08:12:15.635Z,95302.53
2023-02-16T08:14:42.812Z,95302.22
2023-02-16T08:17:10.338Z,95303.94
2023-02-16T08:19:40.344Z,95311.56
2023-02-16T08:22:08.654Z,95309.00
2023-02-16T08:24:36.114Z,95310.84
2023-02-16T08:27:04.426Z,95313.59
2023-02-16T08:29:32.000Z,95320.50
2023-02-16T08:31:59.428Z,95314.03
2023-02-16T08:34:26.768Z,95321.19
2023-02-16T08:36:57.699Z,95319.91
2023-02-16T08:39:26.968Z,95322.75
2023-02-16T08:41:54.889Z,95311.00
2023-02-16T08:44:23.923Z,95323.44
2023-02-16T08:46:52.357Z,95306.09
2023-02-16T08:49:22.109Z,95314.59
2023-02-16T08:51:52.437Z,95303.69
2023-02-16T08:54:29.978Z,95305.06
2023-02-16T08:56:59.039Z,95307.19
2023-02-16T08:59:28.902Z,95308.44
2023-02-16T09:01:57.199Z,95305.63
2023-02-16T09:04:25.587Z,95305.28
2023-02-16T09:06:52.584Z,95306.09
2023-02-16T09:09:19.770Z,95297.38
2023-02-16T09:11:46.764Z,95299.94
2023-02-16T09:14:13.632Z,95300.00
2023-02-16T09:16:45.545Z,95300.34
2023-02-16T09:19:15.090Z,95298.69
2023-02-16T09:21:42.345Z,95299.22
2023-02-16T09:24:09.542Z,95291.44
2023-02-16T09:26:39.015Z,95294.38
2023-02-16T09:29:07.101Z,95292.94
2023-02-16T09:31:35.931Z,95290.13
2023-02-16T09:34:14.219Z,95286.94
2023-02-16T09:36:40.797Z,95284.72
2023-02-16T09:39:08.181Z,95279.22
2023-02-16T09:41:40.579Z,95281.94
2023-02-16T09:44:18.983Z,95279.84
2023-02-16T09:46:47.086Z,95271.50
2023-02-16T09:49:46.437Z,95271.53
2023-02-16T09:52:43.590Z,95272.56
2023-02-16T09:55:18.535Z,95267.94
2023-02-16T09:58:08.212Z,95262.25
2023-02-16T10:00:35.899Z,95258.25
2023-02-16T10:03:21.266Z,95258.88
2023-02-16T10:05:56.683Z,95255.38
2023-02-16T10:08:31.415Z,95253.47
2023-02-16T10:11:27.726Z,95252.47
2023-02-16T10:13:57.493Z,95248.34
2023-02-16T10:16:32.259Z,95238.47
2023-02-16T10:19:02.992Z,95242.84
2023-02-16T10:21:31.655Z,95226.28
2023-02-16T10:24:12.296Z,95237.72
2023-02-16T10:26:44.376Z,95243.63
2023-02-16T10:29:17.074Z,95237.41
2023-02-16T10:31:52.494Z,95224.28
2023-02-16T10:34:47.709Z,95226.81
2023-02-16T10:37:42.783Z,95222.41
2023-02-16T10:40:37.382Z,95223.88
2023-02-16T10:43:37.670Z,95217.97
2023-02-16T10:46:06.060Z,95212.47
2023-02-16T10:48:33.427Z,95207.69
2023-02-16T10:51:12.742Z,95213.63
2023-02-16T10:53:52.999Z,95214.91
2023-02-16T10:56:50.817Z,95206.91
2023-02-16T10:59:23.395Z,95201.78
2023-02-16T11:01:57.617Z,95196.28
2023-02-16T11:04:31.666Z,95194.72
2023-02-16T11:07:12.792Z,95189.28
2023-02-16T11:09:41.318Z,95191.97
2023-02-16T11:12:27.335Z,95185.34
2023-02-16T11:15:19.916Z,95184.84
2023-02-16T11:17:54.698Z,95180.59
2023-02-16T11:20:42.304Z,95182.28
2023-02-16T11:23:17.813Z,95177.63
2023-02-16T11:26:00.178Z,95175.25
2023-02-16T11:28:32.423Z,95180.91
2023-02-16T11:31:05.267Z,95163.84
2023-02-16T11:33:34.837Z,95160.03
2023-02-16T11:36:05.358Z,95159.63
2023-02-16T11:38:35.740Z,95154.44
2023-02-16T11:41:06.418Z,95157.03
2023-02-16T11:43:37.683Z,95155.34
2023-02-16T11:46:14.868Z,95152.75
2023-02-16T11:48:42.930Z,95154.03
2023-02-16T11:51:11.618Z,95154.50
2023-02-16T11:53:43.586Z,95154.34
2023-02-16T11:56:10.759Z,95144.59
2023-02-16T11:58:37.896Z,95146.13
2023-02-16T12:01:28.411Z,95133.16
2023-02-16T12:04:33.760Z,95135.81
2023-02-16T12:07:40.398Z,95136.28
2023-02-16T12:10:12.458Z,95127.84
2023-02-16T12:12:57.780Z,95123.44
2023-02-16T12:15:30.353Z,95126.06
2023-02-16T12:18:03.371Z,95110.53
2023-02-16T12:20:41.863Z,95107.25
2023-02-16T12:23:52.529Z,95102.78
2023-02-16T12:26:39.249Z,95097.94
2023-02-16T12:29:33.930Z,95099.16
2023-02-16T12:32:12.934Z,95092.91
2023-02-16T12:34:51.243Z,95092.03
2023-02-16T12:37:26.888Z,95091.81
2023-02-16T12:40:16.226Z,95086.97
2023-02-16T12:42:46.091Z,95085.66
2023-02-16T12:45:31.841Z,95074.47
2023-02-16T12:48:05.618Z,95073.66
2023-02-16T12:50:35.196Z,95075.88
2023-02-16T12:53:07.298Z,95078.88
2023-02-16T12:55:51.129Z,95069.00
2023-02-16T12:58:23.922Z,95055.50
2023-02-16T13:01:00.148Z,95066.56
2023-02-16T13:03:52.973Z,95054.94
2023-02-16T13:06:44.063Z,95060.09
2023-02-16T13:09:26.067Z,95068.47
2023-02-16T13:12:12.474Z,95070.22
2023-02-16T13:14:44.010Z,95054.25
2023-02-16T13:17:31.176Z,95055.03
2023-02-16T13:19:57.911Z,95048.06
2023-02-16T13:22:50.956Z,95050.69
2023-02-16T13:25:29.829Z,95047.84
2023-02-16T13:28:15.228Z,95048.28
2023-02-16T13:31:12.606Z,95049.91
2023-02-16T13:33:39.279Z,95039.09
2023-02-16T13:36:29.236Z,95031.69
2023-02-16T13:39:13.842Z,95030.41
2023-02-16T13:42:05.395Z,95028.25
2023-02-16T13:44:37.052Z,95033.50
2023-02-16T13:47:05.238Z,95030.78
2023-02-16T13:49:44.915Z,95033.28
2023-02-16T13:52:31.043Z,95025.91
2023-02-16T13:55:01.710Z,95030.47
2023-02-16T13:57:50.766Z,95032.16
2023-02-16T14:00:29.186Z,95028.91
2023-02-16T14:03:00.284Z,95028.50
2023-02-16T14:05:31.274Z,95031.16
2023-02-16T14:08:18.945Z,95022.56
2023-02-16T14:10:55.175Z,95019.34
2023-02-16T14:13:37.050Z,95026.53
2023-02-16T14:16:11.524Z,95019.53
2023-02-16T14:18:54.380Z,95014.78
2023-02-16T14:21:45.480Z,95019.66
2023-02-16T14:24:26.112Z,95018.59
2023-02-16T14:26:59.168Z,95017.41
2023-02-16T14:29:35.123Z,95022.88
2023-02-16T14:32:22.504Z,95017.88
2023-02-16T14:34:57.542Z,95018.00
2023-02-16T14:37:39.413Z,95020.56
2023-02-16T14:40:18.237Z,95024.06
2023-02-16T14:42:57.195Z,95016.75
2023-02-16T14:45:32.584Z,95017.03
2023-02-16T14:48:12.246Z,95010.75
2023-02-16T14:51:10.249Z,95019.03
2023-02-16T14:53:57.921Z,95018.25
2023-02-16T14:56:45.370Z,95015.06
2023-02-16T14:59:24.595Z,95018.81
2023-02-16T15:01:51.612Z,95014.13
2023-02-16T15:04:32.206Z,95008.81
2023-02-16T15:07:06.233Z,95010.88
2023-02-16T15:09:34.928Z,95014.81
2023-02-16T15:12:23.500Z,95009.00
2023-02-16T15:14:54.367Z,95007.66
2023-02-16T15:17:47.278Z,95007.75
2023-02-16T15:20:24.989Z,95014.41
2023-02-16T15:22:54.366Z,95019.44
2023-02-16T15:25:36.271Z,95016.97
2023-02-16T15:28:16.765Z,95018.84
2023-02-16T15:30:48.395Z,95010.84
2023-02-16T15:33:24.163Z,95021.06
2023-02-16T15:36:01.002Z,95018.56
2023-02-16T15:38:31.879Z,95021.09
2023-02-16T15:41:30.211Z,95017.97
2023-02-16T15:43:57.955Z,95005.44
2023-02-16T15:46:42.077Z,95002.28
2023-02-16T15:49:14.853Z,95017.66
2023-02-16T15:51:43.258Z,95007.94
2023-02-16T15:54:30.786Z,95016.59
2023-02-16T15:57:00.117Z,95018.47
2023-02-16T15:59:30.384Z,95020.38
2023-02-16T16:02:19.247Z,95014.72
2023-02-16T16:04:49.535Z,95009.34
2023-02-16T16:07:22.192Z,95012.19
2023-02-16T16:09:49.017Z,95017.50
2023-02-16T16:12:18.982Z,95012.97
2023-02-16T16:14:55.459Z,95015.78
2023-02-16T16:17:28.251Z,95020.34
2023-02-16T16:19:55.487Z,95023.78
2023-02-16T16:22:36.557Z,95022.22
2023-02-16T16:25:28.792Z,95017.84
2023-02-16T16:27:56.307Z,95017.38
2023-02-16T16:30:22.912Z,95012.19
2023-02-16T16:33:02.429Z,95013.44
2023-02-16T16:35:39.755Z,95013.59
2023-02-16T16:38:20.469Z,95021.75
2023-02-16T16:40:51.955Z,95019.25
2023-02-16T16:43:19.897Z,95024.75
2023-02-16T16:45:49.490Z,95025.97
2023-02-16T16:48:23.845Z,95019.38
2023-02-16T16:51:07.776Z,95022.22
2023-02-16T16:53:52.941Z,95025.84
2023-02-16T16:56:20.886Z,95021.75
2023-02-16T16:58:52.088Z,95027.72
2023-02-16T17:01:20.798Z,95028.91
2023-02-16T17:03:47.934Z,95020.94
2023-02-16T17:06:14.716Z,95025.50
2023-02-16T17:08:42.020Z,95024.97
2023-02-16T17:11:23.328Z,95033.22
2023-02-16T17:13:50.305Z,95029.09
2023-02-16T17:16:20.831Z,95033.41
2023-02-16T17:18:47.522Z,95026.34
2023-02-16T17:21:14.873Z,95023.84
2023-02-16T17:23:50.401Z,95028.28
2023-02-16T17:26:19.364Z,95021.28
2023-02-16T17:28:45.975Z,95025.44
2023-02-16T17:31:12.650Z,95017.31
2023-02-16T17:33:39.377Z,95026.41
2023-02-16T17:36:07.278Z,95021.09
2023-02-16T17:38:34.414Z,95034.72
2023-02-16T17:44:47.856Z,95027.91
2023-02-16T17:47:16.583Z,95030.75
2023-02-16T17:49:43.523Z,95022.97
2023-02-16T17:52:11.984Z,95035.94
2023-02-16T17:54:39.419Z,95030.69
2023-02-16T17:57:06.076Z,95018.88
2023-02-16T17:59:34.302Z,95015.63
2023-02-16T18:02:01.022Z,95019.88
2023-02-16T18:04:27.973Z,95024.13
2023-02-16T18:06:54.637Z,95023.41
2023-02-16T18:09:24.523Z,95016.91
2023-02-16T18:11:51.268Z,95022.50
2023-02-16T18:14:18.009Z,95033.03
2023-02-16T18:16:44.910Z,95017.03
2023-02-16T18:19:15.230Z,95042.34
2023-02-16T18:21:42.042Z,95037.41
2023-02-16T18:24:08.698Z,95031.41
2023-02-16T18:26:35.340Z,95031.69
2023-02-16T18:29:01.940Z,95035.88
2023-02-16T18:31:28.738Z,95028.94
2023-02-16T18:33:55.390Z,95028.31
2023-02-16T18:36:22.008Z,95043.72
2023-02-16T18:38:48.667Z,95026.38
2023-02-16T18:41:15.335Z,95028.38
2023-02-16T18:43:41.985Z,95034.44
2023-02-16T18:46:09.994Z,95049.09
2023-02-16T18:48:36.973Z,95063.13
2023-02-16T18:51:06.112Z,95048.25
2023-02-16T18:53:32.752Z,95047.81
2023-02-16T18:55:59.396Z,95053.22
2023-02-16T18:58:26.017Z,95051.28
2023-02-16T19:00:52.667Z,95044.56
2023-02-16T19:03:19.297Z,95043.28
2023-02-16T19:05:46.119Z,95049.81
2023-02-16T19:08:12.934Z,95043.25
2023-02-16T19:10:39.633Z,95041.84
2023-02-16T19:13:07.123Z,95030.91
2023-02-16T19:15:35.583Z,95041.22
2023-02-16T19:18:02.234Z,95038.22
2023-02-16T19:20:29.737Z,95045.00
2023-02-16T19:22:56.434Z,95037.00
2023-02-16T19:25:23.847Z,95037.63
2023-02-16T19:27:50.492Z,95034.44
2023-02-16T19:30:17.170Z,95022.97
2023-02-16T19:32:43.857Z,95023.94
2023-02-16T19:35:11.892Z,95027.22
2023-02-16T19:37:38.651Z,95035.69
2023-02-16T19:40:10.587Z,95034.75
2023-02-16T19:42:38.345Z,95020.81
2023-02-16T19:45:05.471Z,95019.56
2023-02-16T19:47:32.104Z,95027.31
2023-02-16T19:49:58.748Z,95025.19
2023-02-16T19:52:25.505Z,95029.13
2023-02-16T19:54:52.135Z,95025.19
2023-02-16T19:57:18.910Z,95019.09
2023-02-16T19:59:45.498Z,95034.00
2023-02-16T20:02:14.787Z,95030.09
2023-02-16T20:04:42.555Z,95021.69
2023-02-16T20:07:09.942Z,95029.78
2023-02-16T20:09:37.458Z,95037.94
2023-02-16T20:12:05.188Z,95014.53
2023-02-16T20:14:31.949Z,95025.13
2023-02-16T20:16:58.540Z,95031.91
2023-02-16T20:19:25.217Z,95032.50
2023-02-16T20:21:51.862Z,95015.50
2023-02-16T20:24:18.610Z,95025.31
2023-02-16T20:26:49.183Z,95016.88
2023-02-16T20:29:20.849Z,95014.25
2023-02-16T20:31:51.806Z,95023.00
2023-02-16T20:34:19.349Z,95014.44
2023-02-16T20:36:46.017Z,95022.66
2023-02-16T20:39:12.830Z,95031.47
2023-02-16T20:41:40.937Z,95002.81
2023-02-16T20:44:07.633Z,95005.63
2023-02-16T20:46:34.348Z,95023.03
2023-02-16T20:49:01.187Z,95016.13
2023-02-16T20:51:28.029Z,95013.44
2023-02-16T20:53:54.655Z,95006.38
2023-02-16T20:56:26.727Z,95025.91
2023-02-16T20:58:55.733Z,95017.31
2023-02-16T21:01:37.421Z,95022.22
2023-02-16T21:04:05.266Z,95022.13
2023-02-16T21:06:32.288Z,95029.50
2023-02-16T21:08:59.242Z,95031.06
2023-02-16T21:11:26.416Z,95040.00
2023-02-16T21:13:53.368Z,95022.47
2023-02-16T21:16:20.447Z,95022.16
2023-02-16T21:18:47.605Z,95026.59
2023-02-16T21:21:15.852Z,95040.22
2023-02-16T21:23:48.536Z,95031.53
2023-02-16T21:26:16.067Z,95027.03
2023-02-16T21:28:42.830Z,95028.50
2023-02-16T21:31:21.580Z,95036.19
2023-02-16T21:33:48.414Z,95032.22
2023-02-16T21:36:21.885Z,95033.09
2023-02-16T21:38:48.931Z,95034.69
2023-02-16T21:41:24.822Z,95027.25
2023-02-16T21:44:03.603Z,95032.88
2023-02-16T21:46:36.197Z,95035.69
2023-02-16T21:49:04.065Z,95035.22
2023-02-16T21:51:33.686Z,95036.22
2023-02-16T21:54:00.488Z,95039.97
2023-02-16T21:56:32.441Z,95021.44
2023-02-16T21:58:59.292Z,95033.13
2023-02-16T22:01:31.937Z,95029.88
2023-02-16T22:04:00.592Z,95021.63
2023-02-16T22:06:42.119Z,95030.69
2023-02-16T22:09:14.284Z,95018.38
2023-02-16T22:11:41.530Z,95030.56
2023-02-16T22:14:08.133Z,95021.63
2023-02-16T22:16:36.929Z,95027.44
2023-02-16T22:19:07.360Z,95024.38
2023-02-16T22:21:38.696Z,95029.22
2023-02-16T22:24:06.770Z,95030.59
2023-02-16T22:26:35.591Z,95019.47
2023-02-16T22:29:06.547Z,95033.25
2023-02-16T22:31:33.685Z,95030.19
2023-02-16T22:34:03.108Z,95032.56
2023-02-16T22:36:30.651Z,95026.06
2023-02-16T22:38:57.723Z,95037.22
2023-02-16T22:41:25.835Z,95042.63
2023-02-16T22:43:54.452Z,95034.59
2023-02-16T22:46:22.301Z,95041.28
2023-02-16T22:48:48.963Z,95033.44
2023-02-16T22:51:17.173Z,95029.13
2023-02-16T22:53:44.164Z,95035.78
2023-02-16T22:56:13.688Z,95027.16
2023-02-16T22:58:40.458Z,95023.88
2023-02-16T23:01:16.279Z,95025.06
2023-02-16T23:03:45.557Z,95014.25
2023-02-16T23:06:14.764Z,95026.63
2023-02-16T23:08:42.547Z,95022.53
2023-02-16T23:11:09.203Z,95026.16
2023-02-16T23:13:36.728Z,95014.25
2023-02-16T23:16:09.198Z,95023.22
2023-02-16T23:18:36.062Z,95018.69
2023-02-16T23:21:28.786Z,95022.13
2023-02-16T23:23:56.849Z,95019.38
2023-02-16T23:26:25.500Z,95038.53
2023-02-16T23:28:54.329Z,95026.66
2023-02-16T23:31:22.296Z,95028.00
2023-02-16T23:33:49.948Z,95024.78
2023-02-16T23:36:17.042Z,95032.06
2023-02-16T23:38:44.034Z,95028.03
2023-02-16T23:41:15.395Z,95026.06
2023-02-16T23:43:42.970Z,95024.66
2023-02-16T23:46:10.736Z,95011.91
2023-02-16T23:48:38.533Z,95004.44
2023-02-16T23:51:05.887Z,95015.84
2023-02-16T23:53:32.874Z,95010.84
2023-02-16T23:56:05.436Z,95008.28
2023-02-16T23:58:41.281Z,95007.38
